createdAt,value
2019-03-15T00:02:04.538Z,7.50
2019-03-15T00:04:34.908Z,7.50
2019-03-15T00:07:05.210Z,7.50
2019-03-15T00:09:35.530Z,7.50
2019-03-15T00:12:05.966Z,7.50
2019-03-15T00:14:37.255Z,7.50
2019-03-15T00:17:07.475Z,7.50
2019-03-15T00:19:37.766Z,7.70
2019-03-15T00:22:08.147Z,7.80
2019-03-15T00:24:38.335Z,7.90
2019-03-15T00:27:08.822Z,7.90
2019-03-15T00:29:39.123Z,7.90
2019-03-15T00:32:10.762Z,7.90
2019-03-15T00:34:41.234Z,8.10
2019-03-15T00:37:11.489Z,8.10
2019-03-15T00:39:41.708Z,8.10
2019-03-15T00:42:12.022Z,8.10
2019-03-15T00:44:42.243Z,8.10
2019-03-15T00:47:12.468Z,8.20
2019-03-15T00:49:42.784Z,8.20
2019-03-15T00:52:13.032Z,8.10
2019-03-15T00:54:43.235Z,8.00
2019-03-15T00:57:13.548Z,8.00
2019-03-15T00:59:43.811Z,8.00
2019-03-15T01:02:13.987Z,8.00
2019-03-15T01:04:44.287Z,8.00
2019-03-15T01:07:14.584Z,8.10
2019-03-15T01:09:44.907Z,8.10
2019-03-15T01:12:15.395Z,8.20
2019-03-15T01:14:46.659Z,8.30
2019-03-15T01:17:16.894Z,8.20
2019-03-15T01:19:47.366Z,8.20
2019-03-15T01:22:17.603Z,8.10
2019-03-15T01:24:47.840Z,8.00
2019-03-15T01:27:18.141Z,7.90
2019-03-15T01:29:48.396Z,7.80
2019-03-15T01:32:18.615Z,7.70
2019-03-15T01:34:48.812Z,7.60
2019-03-15T01:37:19.172Z,7.50
2019-03-15T01:39:49.471Z,7.40
2019-03-15T01:42:19.758Z,7.20
2019-03-15T01:44:50.053Z,7.20
2019-03-15T01:47:20.326Z,7.00
2019-03-15T01:49:50.629Z,6.90
2019-03-15T01:52:20.895Z,6.80
2019-03-15T01:54:51.128Z,6.70
2019-03-15T01:57:21.393Z,6.60
2019-03-15T01:59:51.647Z,6.50
2019-03-15T02:02:22.342Z,6.40
2019-03-15T02:04:52.692Z,6.30
2019-03-15T02:07:22.954Z,6.20
2019-03-15T02:09:53.323Z,6.10
2019-03-15T02:12:23.627Z,6.00
2019-03-15T02:14:53.912Z,5.90
2019-03-15T02:17:24.251Z,5.80
2019-03-15T02:19:54.427Z,5.80
2019-03-15T02:22:24.667Z,5.70
2019-03-15T02:24:54.918Z,5.70
2019-03-15T02:27:25.187Z,5.60
2019-03-15T02:29:55.427Z,5.50
2019-03-15T02:32:25.670Z,5.50
2019-03-15T02:34:55.955Z,5.50
2019-03-15T02:37:26.231Z,5.50
2019-03-15T02:39:56.433Z,5.40
2019-03-15T02:42:26.711Z,5.30
2019-03-15T02:44:56.992Z,5.20
2019-03-15T02:47:27.323Z,5.00
2019-03-15T02:49:57.572Z,4.80
2019-03-15T02:52:29.396Z,4.70
2019-03-15T02:54:59.623Z,4.70
2019-03-15T02:57:30.007Z,4.70
2019-03-15T03:00:00.684Z,4.80
2019-03-15T03:02:30.757Z,4.80
2019-03-15T03:05:01.076Z,4.80
2019-03-15T03:07:31.339Z,4.50
2019-03-15T03:10:02.291Z,4.40
2019-03-15T03:12:32.870Z,4.30
2019-03-15T03:15:03.146Z,4.20
2019-03-15T03:17:33.434Z,4.20
2019-03-15T03:20:04.734Z,4.10
2019-03-15T03:22:36.093Z,4.00
2019-03-15T03:25:07.150Z,4.00
2019-03-15T03:27:37.452Z,4.00
2019-03-15T03:30:08.021Z,4.00
2019-03-15T03:32:38.261Z,3.90
2019-03-15T03:35:10.061Z,3.80
2019-03-15T03:37:41.061Z,3.80
2019-03-15T03:40:11.635Z,3.90
2019-03-15T03:42:41.893Z,4.00
2019-03-15T03:45:12.320Z,3.90
2019-03-15T03:47:43.435Z,3.90
2019-03-15T03:50:14.072Z,3.80
2019-03-15T03:52:44.299Z,3.70
2019-03-15T03:55:14.797Z,3.50
2019-03-15T03:57:45.083Z,3.40
2019-03-15T04:00:15.711Z,3.30
2019-03-15T04:02:45.956Z,3.20
2019-03-15T04:05:16.111Z,3.30
2019-03-15T04:07:46.482Z,3.30
2019-03-15T04:10:16.771Z,3.30
2019-03-15T04:12:47.200Z,3.20
2019-03-15T04:15:17.522Z,3.10
2019-03-15T04:17:47.819Z,3.10
2019-03-15T04:20:18.087Z,3.20
2019-03-15T04:22:49.319Z,3.30
2019-03-15T04:25:19.630Z,3.40
2019-03-15T04:27:49.986Z,3.40
2019-03-15T04:30:20.183Z,3.50
2019-03-15T04:32:50.465Z,3.60
2019-03-15T04:35:20.753Z,3.60
2019-03-15T04:37:50.932Z,3.70
2019-03-15T04:40:21.219Z,3.70
2019-03-15T04:42:51.520Z,3.60
2019-03-15T04:45:21.839Z,3.70
2019-03-15T04:47:52.208Z,3.70
2019-03-15T04:50:22.451Z,3.60
2019-03-15T04:52:52.708Z,3.60
2019-03-15T04:55:22.994Z,3.60
2019-03-15T04:57:53.397Z,3.60
2019-03-15T05:00:23.645Z,3.50
2019-03-15T05:02:53.758Z,3.50
2019-03-15T05:05:24.163Z,3.40
2019-03-15T05:07:54.417Z,3.30
2019-03-15T05:10:24.713Z,3.30
2019-03-15T05:12:55.086Z,3.20
2019-03-15T05:15:25.512Z,3.20
2019-03-15T05:17:55.762Z,3.20
2019-03-15T05:20:26.039Z,3.30
2019-03-15T05:22:57.280Z,3.20
2019-03-15T05:25:29.962Z,3.40
2019-03-15T05:27:59.590Z,3.50
2019-03-15T05:30:29.811Z,3.80
2019-03-15T05:33:00.100Z,4.20
2019-03-15T05:35:30.331Z,4.10
2019-03-15T05:38:00.478Z,4.00
2019-03-15T05:40:30.868Z,4.00
2019-03-15T05:43:01.270Z,4.00
2019-03-15T05:45:31.512Z,4.10
2019-03-15T05:48:02.289Z,4.20
2019-03-15T05:50:32.483Z,4.20
2019-03-15T05:53:02.873Z,4.20
2019-03-15T05:55:33.224Z,4.20
2019-03-15T05:58:03.434Z,4.10
2019-03-15T06:00:33.693Z,4.10
2019-03-15T06:03:03.979Z,4.20
2019-03-15T06:05:34.386Z,4.30
2019-03-15T06:08:04.635Z,4.40
2019-03-15T06:10:34.955Z,4.40
2019-03-15T06:13:05.315Z,4.40
2019-03-15T06:15:35.579Z,4.60
2019-03-15T06:18:06.953Z,4.70
2019-03-15T06:20:46.979Z,4.80
2019-03-15T06:23:20.784Z,4.70
2019-03-15T06:25:51.735Z,4.80
2019-03-15T06:28:22.070Z,4.90
2019-03-15T06:30:52.435Z,5.00
2019-03-15T06:33:22.841Z,5.20
2019-03-15T06:35:53.128Z,5.30
2019-03-15T06:38:23.358Z,5.40
2019-03-15T06:40:53.575Z,5.60
2019-03-15T06:43:23.895Z,5.80
2019-03-15T06:45:54.119Z,6.00
2019-03-15T06:48:24.364Z,6.30
2019-03-15T06:50:54.666Z,6.40
2019-03-15T06:53:25.032Z,6.60
2019-03-15T06:55:55.430Z,6.70
2019-03-15T06:58:25.791Z,6.80
2019-03-15T07:00:56.809Z,6.90
2019-03-15T07:03:27.652Z,7.20
2019-03-15T07:05:57.948Z,7.40
2019-03-15T07:08:28.167Z,7.60
2019-03-15T07:10:58.384Z,7.90
2019-03-15T07:13:28.810Z,8.10
2019-03-15T07:15:59.047Z,8.40
2019-03-15T07:18:29.308Z,8.60
2019-03-15T07:20:59.572Z,8.70
2019-03-15T07:23:30.046Z,9.00
2019-03-15T07:26:01.244Z,9.20
2019-03-15T07:28:31.580Z,9.40
2019-03-15T07:31:01.836Z,9.70
2019-03-15T07:33:32.060Z,10.00
2019-03-15T07:36:02.291Z,10.20
2019-03-15T07:38:32.559Z,10.40
2019-03-15T07:41:02.814Z,10.70
2019-03-15T07:43:33.110Z,10.90
2019-03-15T07:46:03.344Z,11.10
2019-03-15T07:48:33.551Z,11.30
2019-03-15T07:51:03.966Z,11.50
2019-03-15T07:53:35.376Z,11.70
2019-03-15T07:56:06.069Z,11.90
2019-03-15T07:58:36.371Z,12.00
2019-03-15T08:01:06.635Z,12.20
2019-03-15T08:03:36.899Z,12.20
2019-03-15T08:06:07.207Z,12.30
2019-03-15T08:08:37.456Z,12.50
2019-03-15T08:11:09.704Z,12.60
2019-03-15T08:13:40.099Z,12.70
2019-03-15T08:16:11.771Z,12.90
2019-03-15T08:18:42.128Z,13.00
2019-03-15T08:21:12.376Z,13.20
2019-03-15T08:23:42.619Z,13.40
2019-03-15T08:26:13.914Z,13.60
2019-03-15T08:28:44.147Z,13.70
2019-03-15T08:31:15.151Z,13.90
2019-03-15T08:33:47.274Z,14.10
2019-03-15T08:36:20.278Z,14.10
2019-03-15T08:38:51.976Z,14.30
2019-03-15T08:41:22.219Z,14.40
2019-03-15T08:43:52.478Z,14.40
2019-03-15T08:46:22.772Z,14.50
2019-03-15T08:48:58.181Z,14.70
2019-03-15T08:51:28.500Z,14.70
2019-03-15T08:53:58.754Z,14.90
2019-03-15T08:56:29.011Z,15.00
2019-03-15T08:58:59.290Z,15.00
2019-03-15T09:01:29.547Z,15.10
2019-03-15T09:03:59.753Z,15.10
2019-03-15T09:06:30.054Z,15.20
2019-03-15T09:09:00.204Z,15.30
2019-03-15T09:11:30.447Z,15.40
2019-03-15T09:14:00.694Z,15.50
2019-03-15T09:16:31.013Z,15.50
2019-03-15T09:19:01.311Z,15.60
2019-03-15T09:21:31.900Z,15.90
2019-03-15T09:24:02.164Z,16.00
2019-03-15T09:26:32.440Z,16.00
2019-03-15T09:29:04.286Z,16.00
2019-03-15T09:31:47.062Z,16.10
2019-03-15T09:34:07.590Z,16.20
2019-03-15T09:36:49.299Z,16.30
2019-03-15T09:39:10.028Z,16.50
2019-03-15T09:41:42.869Z,16.50
2019-03-15T09:44:18.299Z,16.50
2019-03-15T09:46:51.030Z,16.60
2019-03-15T09:49:21.269Z,16.80
2019-03-15T09:51:51.488Z,16.80
2019-03-15T09:54:21.799Z,17.00
2019-03-15T09:56:52.009Z,17.00
2019-03-15T09:59:22.252Z,17.10
2019-03-15T10:01:52.551Z,17.20
2019-03-15T10:04:22.765Z,17.20
2019-03-15T10:06:52.999Z,17.20
2019-03-15T10:09:23.314Z,17.30
2019-03-15T10:11:56.374Z,17.50
2019-03-15T10:14:25.557Z,17.60
2019-03-15T10:16:55.883Z,17.70
2019-03-15T10:19:29.524Z,17.60
2019-03-15T10:21:59.101Z,17.70
2019-03-15T10:24:29.365Z,17.70
2019-03-15T10:26:59.604Z,17.70
2019-03-15T10:29:30.865Z,17.80
2019-03-15T10:32:01.145Z,18.00
2019-03-15T10:34:31.392Z,18.10
2019-03-15T10:37:01.564Z,18.10
2019-03-15T10:39:31.807Z,18.30
2019-03-15T10:42:02.012Z,18.40
2019-03-15T10:44:32.355Z,18.50
2019-03-15T10:47:02.580Z,18.60
2019-03-15T10:49:32.808Z,18.50
2019-03-15T10:52:03.111Z,18.60
2019-03-15T10:54:33.367Z,18.70
2019-03-15T10:57:03.551Z,18.80
2019-03-15T10:59:33.835Z,18.90
2019-03-15T11:02:04.132Z,19.00
2019-03-15T11:04:34.360Z,19.10
2019-03-15T11:07:04.631Z,19.30
2019-03-15T11:09:34.855Z,19.20
2019-03-15T11:12:05.122Z,19.30
2019-03-15T11:14:35.500Z,19.40
2019-03-15T11:17:05.924Z,19.60
2019-03-15T11:19:36.151Z,19.70
2019-03-15T11:22:06.440Z,19.70
2019-03-15T11:24:36.743Z,19.70
2019-03-15T11:27:07.055Z,19.70
2019-03-15T11:29:37.307Z,19.80
2019-03-15T11:32:18.211Z,19.90
2019-03-15T11:34:48.567Z,20.00
2019-03-15T11:37:19.539Z,20.10
2019-03-15T11:39:49.815Z,20.50
2019-03-15T11:42:23.039Z,21.00
2019-03-15T11:44:53.821Z,21.00
2019-03-15T11:47:24.174Z,21.10
2019-03-15T11:49:54.490Z,21.40
2019-03-15T11:52:31.921Z,21.50
2019-03-15T11:55:16.039Z,21.90
2019-03-15T11:57:46.232Z,22.40
2019-03-15T12:00:16.608Z,22.50
2019-03-15T12:02:46.879Z,23.00
2019-03-15T12:05:17.204Z,22.80
2019-03-15T12:07:47.540Z,22.90
2019-03-15T12:10:18.032Z,23.20
2019-03-15T12:12:48.409Z,23.40
2019-03-15T12:15:18.646Z,23.40
2019-03-15T12:17:48.887Z,23.50
2019-03-15T12:20:19.135Z,23.80
2019-03-15T12:22:52.375Z,23.70
2019-03-15T12:25:22.738Z,23.60
2019-03-15T12:27:53.104Z,23.80
2019-03-15T12:30:24.671Z,23.90
2019-03-15T12:32:56.067Z,24.00
2019-03-15T12:35:26.373Z,24.10
2019-03-15T12:37:56.635Z,23.70
2019-03-15T12:40:26.990Z,23.70
2019-03-15T12:42:58.382Z,23.90
2019-03-15T12:45:28.666Z,24.00
2019-03-15T12:47:58.892Z,23.70
2019-03-15T12:50:29.251Z,23.60
2019-03-15T12:52:59.500Z,23.70
2019-03-15T12:55:29.761Z,24.10
2019-03-15T12:57:59.936Z,24.20
2019-03-15T13:00:30.178Z,24.10
2019-03-15T13:03:00.387Z,23.90
2019-03-15T13:05:30.707Z,24.20
2019-03-15T13:08:00.920Z,24.60
2019-03-15T13:10:31.062Z,24.40
2019-03-15T13:13:01.358Z,24.50
2019-03-15T13:15:32.126Z,24.30
2019-03-15T13:18:02.563Z,24.60
2019-03-15T13:20:32.747Z,24.80
2019-03-15T13:23:02.923Z,24.20
2019-03-15T13:25:33.206Z,24.20
2019-03-15T13:28:03.504Z,24.50
2019-03-15T13:30:33.779Z,24.50
2019-03-15T13:33:04.055Z,24.80
2019-03-15T13:35:35.267Z,24.40
2019-03-15T13:38:05.524Z,24.20
2019-03-15T13:40:35.765Z,24.40
2019-03-15T13:43:06.155Z,24.80
2019-03-15T13:45:36.435Z,25.30
2019-03-15T13:48:06.611Z,25.00
2019-03-15T13:50:36.890Z,24.70
2019-03-15T13:53:07.202Z,25.10
2019-03-15T13:55:37.521Z,25.10
2019-03-15T13:58:07.867Z,25.10
2019-03-15T14:00:38.128Z,25.10
2019-03-15T14:03:08.435Z,25.30
2019-03-15T14:05:38.756Z,26.20
2019-03-15T14:08:11.975Z,26.00
2019-03-15T14:10:49.242Z,26.10
2019-03-15T14:13:12.790Z,26.00
2019-03-15T14:15:43.075Z,26.00
2019-03-15T14:18:13.454Z,25.30
2019-03-15T14:20:43.653Z,25.40
2019-03-15T14:23:13.899Z,25.00
2019-03-15T14:25:44.268Z,25.20
2019-03-15T14:28:14.737Z,26.00
2019-03-15T14:30:44.979Z,25.40
2019-03-15T14:33:15.235Z,24.90
2019-03-15T14:35:45.519Z,25.60
2019-03-15T14:38:16.845Z,25.80
2019-03-15T14:40:47.130Z,26.00
2019-03-15T14:43:17.758Z,26.00
2019-03-15T14:45:48.261Z,25.10
2019-03-15T14:48:18.618Z,25.70
2019-03-15T14:50:48.855Z,26.00
2019-03-15T14:53:19.146Z,25.80
2019-03-15T14:55:49.369Z,25.20
2019-03-15T14:58:19.656Z,25.60
2019-03-15T15:00:49.879Z,25.80
2019-03-15T15:03:20.109Z,25.50
2019-03-15T15:05:50.519Z,25.40
2019-03-15T15:08:20.797Z,25.60
2019-03-15T15:10:51.071Z,25.40
2019-03-15T15:13:22.279Z,25.50
2019-03-15T15:15:52.724Z,25.50
2019-03-15T15:18:22.887Z,25.10
2019-03-15T15:20:53.147Z,25.30
2019-03-15T15:23:23.446Z,25.60
2019-03-15T15:25:55.504Z,25.10
2019-03-15T15:28:25.867Z,25.80
2019-03-15T15:30:56.133Z,26.10
2019-03-15T15:33:26.384Z,25.40
2019-03-15T15:35:56.656Z,25.40
2019-03-15T15:38:27.070Z,25.40
2019-03-15T15:40:58.340Z,25.40
2019-03-15T15:43:28.647Z,25.10
2019-03-15T15:45:58.850Z,25.40
2019-03-15T15:48:28.967Z,25.60
2019-03-15T15:50:59.333Z,24.80
2019-03-15T15:53:29.729Z,25.30
2019-03-15T15:55:59.653Z,25.60
2019-03-15T15:58:29.684Z,25.30
2019-03-15T16:00:59.980Z,25.40
2019-03-15T16:03:29.932Z,24.90
2019-03-15T16:05:59.958Z,24.60
2019-03-15T16:08:29.886Z,24.20
2019-03-15T16:10:59.824Z,24.00
2019-03-15T16:13:29.821Z,24.10
2019-03-15T16:15:59.769Z,23.80
2019-03-15T16:18:29.887Z,24.00
2019-03-15T16:20:59.952Z,24.20
2019-03-15T16:23:30.468Z,24.20
2019-03-15T16:26:00.634Z,24.00
2019-03-15T16:28:33.278Z,23.50
2019-03-15T16:31:02.238Z,23.00
2019-03-15T16:33:32.170Z,22.80
2019-03-15T16:36:03.203Z,22.80
2019-03-15T16:38:33.192Z,22.70
2019-03-15T16:41:04.137Z,22.30
2019-03-15T16:43:34.101Z,21.80
2019-03-15T16:46:04.135Z,21.30
2019-03-15T16:48:34.068Z,20.90
2019-03-15T16:51:04.071Z,20.60
2019-03-15T16:53:34.015Z,20.30
2019-03-15T16:56:03.956Z,20.00
2019-03-15T16:58:44.976Z,19.70
2019-03-15T17:01:05.923Z,19.40
2019-03-15T17:03:35.847Z,19.30
2019-03-15T17:06:05.940Z,19.10
2019-03-15T17:08:35.884Z,18.90
2019-03-15T17:11:05.819Z,18.80
2019-03-15T17:13:35.818Z,18.90
2019-03-15T17:16:06.100Z,19.30
2019-03-15T17:18:36.074Z,19.20
2019-03-15T17:21:06.337Z,19.00
2019-03-15T17:23:36.257Z,18.60
2019-03-15T17:26:06.233Z,18.20
2019-03-15T17:28:36.249Z,17.90
2019-03-15T17:31:10.155Z,17.80
2019-03-15T17:33:37.813Z,17.50
2019-03-15T17:36:07.894Z,17.40
2019-03-15T17:38:37.826Z,17.30
2019-03-15T17:41:07.859Z,17.20
2019-03-15T17:43:38.795Z,17.10
2019-03-15T17:46:21.455Z,16.80
2019-03-15T17:48:51.958Z,16.50
2019-03-15T17:51:22.259Z,16.20
2019-03-15T17:53:52.483Z,16.00
2019-03-15T17:56:23.944Z,15.80
2019-03-15T17:58:54.531Z,15.80
2019-03-15T18:01:25.581Z,15.80
2019-03-15T18:03:56.245Z,15.80
2019-03-15T18:06:26.514Z,15.70
2019-03-15T18:08:56.763Z,15.60
2019-03-15T18:11:27.983Z,15.50
2019-03-15T18:13:58.319Z,15.40
2019-03-15T18:16:28.777Z,15.30
2019-03-15T18:18:59.154Z,15.20
2019-03-15T18:21:29.414Z,15.20
2019-03-15T18:23:59.607Z,15.30
2019-03-15T18:26:29.881Z,15.40
2019-03-15T18:29:00.153Z,15.50
2019-03-15T18:31:30.408Z,15.50
2019-03-15T18:34:00.563Z,15.60
2019-03-15T18:36:30.914Z,15.50
2019-03-15T18:39:02.343Z,15.50
2019-03-15T18:41:32.588Z,15.50
2019-03-15T18:44:03.733Z,15.40
2019-03-15T18:46:34.019Z,15.20
2019-03-15T18:49:04.272Z,15.10
2019-03-15T18:51:34.553Z,15.00
2019-03-15T18:54:16.936Z,14.90
2019-03-15T18:56:36.795Z,14.80
2019-03-15T18:59:07.188Z,14.70
2019-03-15T19:01:37.704Z,14.70
2019-03-15T19:04:08.051Z,14.60
2019-03-15T19:06:38.317Z,14.70
2019-03-15T19:09:08.862Z,14.80
2019-03-15T19:11:39.146Z,14.80
2019-03-15T19:14:09.364Z,14.70
2019-03-15T19:16:39.670Z,14.80
2019-03-15T19:19:10.036Z,14.90
2019-03-15T19:21:40.212Z,15.00
2019-03-15T19:24:10.619Z,15.10
2019-03-15T19:26:40.899Z,15.10
2019-03-15T19:29:11.124Z,15.10
2019-03-15T19:31:41.589Z,15.10
2019-03-15T19:34:11.836Z,14.90
2019-03-15T19:36:42.055Z,14.70
2019-03-15T19:39:12.471Z,14.70
2019-03-15T19:41:42.743Z,14.70
2019-03-15T19:44:12.907Z,14.60
2019-03-15T19:46:43.565Z,14.50
2019-03-15T19:49:14.231Z,14.40
2019-03-15T19:51:44.184Z,14.20
2019-03-15T19:54:14.287Z,14.10
2019-03-15T19:56:44.519Z,14.00
2019-03-15T19:59:14.462Z,13.80
2019-03-15T20:01:44.549Z,13.60
2019-03-15T20:04:14.547Z,13.50
2019-03-15T20:06:44.495Z,13.30
2019-03-15T20:09:14.500Z,13.30
2019-03-15T20:11:44.447Z,13.30
2019-03-15T20:14:14.492Z,13.40
2019-03-15T20:16:44.663Z,13.30
2019-03-15T20:19:14.607Z,13.20
2019-03-15T20:21:44.579Z,13.20
2019-03-15T20:24:14.583Z,13.10
2019-03-15T20:26:44.519Z,12.90
2019-03-15T20:29:14.455Z,12.80
2019-03-15T20:31:44.439Z,13.00
2019-03-15T20:34:14.380Z,13.00
2019-03-15T20:36:44.304Z,12.80
2019-03-15T20:39:14.306Z,12.60
2019-03-15T20:41:44.236Z,12.50
2019-03-15T20:44:27.536Z,12.50
2019-03-15T20:46:45.832Z,12.50
2019-03-15T20:49:15.842Z,12.60
2019-03-15T20:51:45.775Z,12.50
2019-03-15T20:54:15.796Z,12.30
2019-03-15T20:56:45.708Z,12.20
2019-03-15T20:59:15.683Z,12.20
2019-03-15T21:01:48.809Z,12.20
2019-03-15T21:04:17.247Z,12.20
2019-03-15T21:06:47.192Z,12.20
2019-03-15T21:09:17.173Z,12.10
2019-03-15T21:11:47.167Z,12.00
2019-03-15T21:14:17.106Z,11.90
2019-03-15T21:16:47.119Z,11.80
2019-03-15T21:19:17.046Z,11.80
2019-03-15T21:21:46.991Z,11.70
2019-03-15T21:24:17.248Z,11.70
2019-03-15T21:26:47.206Z,11.70
2019-03-15T21:29:17.139Z,11.90
2019-03-15T21:31:47.117Z,12.00
2019-03-15T21:34:17.042Z,12.20
2019-03-15T21:36:46.966Z,12.10
2019-03-15T21:39:16.970Z,12.10
2019-03-15T21:41:46.944Z,12.00
2019-03-15T21:44:17.445Z,12.00
2019-03-15T21:46:47.598Z,11.80
2019-03-15T21:49:17.547Z,11.80
2019-03-15T21:51:48.392Z,12.00
2019-03-15T21:54:18.402Z,12.10
2019-03-15T21:56:48.363Z,12.10
2019-03-15T21:59:18.387Z,12.00
2019-03-15T22:01:48.394Z,12.00
2019-03-15T22:04:18.521Z,11.80
2019-03-15T22:06:48.671Z,11.50
2019-03-15T22:09:18.863Z,11.30
2019-03-15T22:11:49.007Z,11.20
2019-03-15T22:14:19.445Z,11.10
2019-03-15T22:16:49.759Z,11.00
2019-03-15T22:19:19.953Z,10.90
2019-03-15T22:21:50.209Z,11.00
2019-03-15T22:24:20.191Z,11.00
2019-03-15T22:26:50.228Z,10.90
2019-03-15T22:29:20.171Z,11.00
2019-03-15T22:31:50.441Z,11.00
2019-03-15T22:34:20.868Z,11.00
2019-03-15T22:36:51.110Z,10.90
2019-03-15T22:39:21.446Z,10.80
2019-03-15T22:41:51.494Z,10.80
2019-03-15T22:44:21.546Z,10.70
2019-03-15T22:46:51.886Z,10.70
2019-03-15T22:49:21.814Z,10.50
2019-03-15T22:51:52.006Z,10.50
2019-03-15T22:54:23.003Z,10.50
2019-03-15T22:56:52.958Z,10.50
2019-03-15T22:59:22.900Z,10.50
2019-03-15T23:01:52.902Z,10.50
2019-03-15T23:04:22.921Z,10.40
2019-03-15T23:06:52.829Z,10.40
2019-03-15T23:09:22.834Z,10.30
2019-03-15T23:11:52.970Z,10.20
2019-03-15T23:14:22.976Z,10.10
2019-03-15T23:16:53.026Z,10.20
2019-03-15T23:19:22.968Z,10.20
2019-03-15T23:21:52.932Z,10.10
2019-03-15T23:24:23.234Z,9.90
2019-03-15T23:26:53.304Z,9.80
2019-03-15T23:29:23.245Z,9.70
2019-03-15T23:31:53.242Z,9.70
2019-03-15T23:34:23.172Z,9.70
2019-03-15T23:36:53.191Z,9.70
2019-03-15T23:39:23.164Z,9.70
2019-03-15T23:41:55.289Z,9.60
2019-03-15T23:44:24.748Z,9.60
2019-03-15T23:46:54.860Z,9.60
2019-03-15T23:49:24.800Z,9.70
2019-03-15T23:51:54.862Z,9.70
2019-03-15T23:54:24.876Z,9.60
2019-03-15T23:56:55.824Z,9.50
2019-03-15T23:59:25.767Z,9.50
